sensor_id;sensor_type;location;lat;lon;timestamp;pressure;altitude;pressure_sealevel;temperature;humidity
49297;BME280;35163;48.878;18.040;2023-05-14T00:01:03;98813.53;;;14.32;55.99
49297;BME280;35163;48.878;18.040;2023-05-14T00:03:30;98802.41;;;14.29;57.09
49297;BME280;35163;48.878;18.040;2023-05-14T00:05:56;98805.91;;;14.28;57.40
49297;BME280;35163;48.878;18.040;2023-05-14T00:08:23;98805.06;;;14.27;57.34
49297;BME280;35163;48.878;18.040;2023-05-14T00:10:50;98810.25;;;14.27;58.11
49297;BME280;35163;48.878;18.040;2023-05-14T00:13:17;98803.59;;;14.20;58.79
49297;BME280;35163;48.878;18.040;2023-05-14T00:15:44;98797.00;;;14.13;60.49
49297;BME280;35163;48.878;18.040;2023-05-14T00:18:10;98802.41;;;14.06;61.31
49297;BME280;35163;48.878;18.040;2023-05-14T00:20:37;98801.66;;;14.04;61.46
49297;BME280;35163;48.878;18.040;2023-05-14T00:23:04;98797.06;;;13.89;62.27
49297;BME280;35163;48.878;18.040;2023-05-14T00:25:31;98796.13;;;13.90;62.36
49297;BME280;35163;48.878;18.040;2023-05-14T00:27:58;98790.88;;;13.91;61.56
49297;BME280;35163;48.878;18.040;2023-05-14T00:30:24;98787.38;;;13.92;60.38
49297;BME280;35163;48.878;18.040;2023-05-14T00:32:51;98787.53;;;13.88;60.61
49297;BME280;35163;48.878;18.040;2023-05-14T00:35:18;98783.94;;;13.92;60.52
49297;BME280;35163;48.878;18.040;2023-05-14T00:37:46;98783.13;;;13.90;61.25
49297;BME280;35163;48.878;18.040;2023-05-14T00:40:13;98783.38;;;13.83;61.59
49297;BME280;35163;48.878;18.040;2023-05-14T00:42:40;98770.53;;;13.80;62.74
49297;BME280;35163;48.878;18.040;2023-05-14T00:45:07;98776.47;;;13.82;63.10
49297;BME280;35163;48.878;18.040;2023-05-14T00:47:34;98769.53;;;13.83;63.86
49297;BME280;35163;48.878;18.040;2023-05-14T00:50:02;98767.78;;;13.83;64.17
49297;BME280;35163;48.878;18.040;2023-05-14T00:52:30;98766.03;;;13.84;64.34
49297;BME280;35163;48.878;18.040;2023-05-14T00:54:57;98770.41;;;13.83;64.20
49297;BME280;35163;48.878;18.040;2023-05-14T00:57:24;98773.13;;;13.80;64.61
49297;BME280;35163;48.878;18.040;2023-05-14T00:59:51;98774.88;;;13.80;64.56
49297;BME280;35163;48.878;18.040;2023-05-14T01:02:17;98772.31;;;13.78;64.82
49297;BME280;35163;48.878;18.040;2023-05-14T01:04:44;98764.47;;;13.80;64.56
49297;BME280;35163;48.878;18.040;2023-05-14T01:07:19;98768.06;;;13.76;64.70
49297;BME280;35163;48.878;18.040;2023-05-14T01:10:26;98762.94;;;13.74;64.87
49297;BME280;35163;48.878;18.040;2023-05-14T01:13:12;98760.59;;;13.68;65.29
49297;BME280;35163;48.878;18.040;2023-05-14T01:15:39;98766.88;;;13.62;65.27
49297;BME280;35163;48.878;18.040;2023-05-14T01:18:09;98757.75;;;13.50;65.84
49297;BME280;35163;48.878;18.040;2023-05-14T01:20:36;98756.34;;;13.41;66.29
49297;BME280;35163;48.878;18.040;2023-05-14T01:23:02;98760.88;;;13.36;66.30
49297;BME280;35163;48.878;18.040;2023-05-14T01:25:32;98753.44;;;13.27;66.79
49297;BME280;35163;48.878;18.040;2023-05-14T01:28:11;98758.81;;;13.22;67.03
49297;BME280;35163;48.878;18.040;2023-05-14T01:31:01;98757.22;;;13.18;67.09
49297;BME280;35163;48.878;18.040;2023-05-14T01:33:31;98753.78;;;13.17;67.10
49297;BME280;35163;48.878;18.040;2023-05-14T01:35:59;98748.88;;;13.09;67.72
49297;BME280;35163;48.878;18.040;2023-05-14T01:38:26;98745.47;;;13.07;67.59
49297;BME280;35163;48.878;18.040;2023-05-14T01:40:58;98744.75;;;13.04;67.73
49297;BME280;35163;48.878;18.040;2023-05-14T01:43:25;98734.53;;;12.99;68.44
49297;BME280;35163;48.878;18.040;2023-05-14T01:45:52;98736.56;;;12.91;68.69
49297;BME280;35163;48.878;18.040;2023-05-14T01:48:21;98732.06;;;12.96;68.51
49297;BME280;35163;48.878;18.040;2023-05-14T01:50:47;98726.69;;;13.00;68.18
49297;BME280;35163;48.878;18.040;2023-05-14T01:53:14;98731.03;;;13.00;68.00
49297;BME280;35163;48.878;18.040;2023-05-14T01:55:41;98739.59;;;13.02;67.95
49297;BME280;35163;48.878;18.040;2023-05-14T01:58:07;98727.75;;;12.95;68.34
49297;BME280;35163;48.878;18.040;2023-05-14T02:00:34;98728.38;;;13.02;67.70
49297;BME280;35163;48.878;18.040;2023-05-14T02:03:00;98721.25;;;13.07;67.36
49297;BME280;35163;48.878;18.040;2023-05-14T02:05:27;98721.38;;;13.04;67.73
49297;BME280;35163;48.878;18.040;2023-05-14T02:07:54;98725.94;;;12.97;68.01
49297;BME280;35163;48.878;18.040;2023-05-14T02:10:21;98723.47;;;12.94;67.83
49297;BME280;35163;48.878;18.040;2023-05-14T02:12:48;98728.53;;;12.97;67.87
49297;BME280;35163;48.878;18.040;2023-05-14T02:15:14;98727.75;;;12.95;67.85
49297;BME280;35163;48.878;18.040;2023-05-14T02:17:41;98719.03;;;12.97;67.49
49297;BME280;35163;48.878;18.040;2023-05-14T02:20:08;98706.78;;;13.01;67.38
49297;BME280;35163;48.878;18.040;2023-05-14T02:22:35;98709.38;;;13.01;67.18
49297;BME280;35163;48.878;18.040;2023-05-14T02:25:02;98723.16;;;13.03;67.13
49297;BME280;35163;48.878;18.040;2023-05-14T02:27:29;98716.13;;;13.05;66.98
49297;BME280;35163;48.878;18.040;2023-05-14T02:29:56;98721.31;;;13.05;66.71
49297;BME280;35163;48.878;18.040;2023-05-14T02:32:26;98727.31;;;13.07;66.67
49297;BME280;35163;48.878;18.040;2023-05-14T02:34:53;98722.91;;;13.09;66.84
49297;BME280;35163;48.878;18.040;2023-05-14T02:37:20;98717.28;;;12.98;67.85
49297;BME280;35163;48.878;18.040;2023-05-14T02:39:47;98721.88;;;12.90;68.30
49297;BME280;35163;48.878;18.040;2023-05-14T02:42:14;98716.13;;;12.81;68.77
49297;BME280;35163;48.878;18.040;2023-05-14T02:44:41;98706.03;;;12.73;69.16
49297;BME280;35163;48.878;18.040;2023-05-14T02:47:07;98702.47;;;12.76;68.50
49297;BME280;35163;48.878;18.040;2023-05-14T02:49:34;98698.06;;;12.78;67.89
49297;BME280;35163;48.878;18.040;2023-05-14T02:52:01;98699.66;;;12.82;67.73
49297;BME280;35163;48.878;18.040;2023-05-14T02:54:27;98698.81;;;12.82;67.34
49297;BME280;35163;48.878;18.040;2023-05-14T02:56:54;98700.50;;;12.83;66.77
49297;BME280;35163;48.878;18.040;2023-05-14T02:59:22;98692.56;;;12.87;66.31
49297;BME280;35163;48.878;18.040;2023-05-14T03:01:49;98706.44;;;12.86;66.03
49297;BME280;35163;48.878;18.040;2023-05-14T03:04:19;98700.41;;;12.86;65.57
49297;BME280;35163;48.878;18.040;2023-05-14T03:06:46;98700.41;;;12.86;65.55
49297;BME280;35163;48.878;18.040;2023-05-14T03:09:12;98707.47;;;12.82;65.45
49297;BME280;35163;48.878;18.040;2023-05-14T03:11:39;98696.09;;;12.85;65.11
49297;BME280;35163;48.878;18.040;2023-05-14T03:14:06;98683.97;;;12.85;64.77
49297;BME280;35163;48.878;18.040;2023-05-14T03:16:33;98690.75;;;12.90;64.47
49297;BME280;35163;48.878;18.040;2023-05-14T03:18:59;98694.44;;;12.84;63.91
49297;BME280;35163;48.878;18.040;2023-05-14T03:21:26;98690.97;;;12.83;63.75
49297;BME280;35163;48.878;18.040;2023-05-14T03:23:52;98690.13;;;12.83;63.60
49297;BME280;35163;48.878;18.040;2023-05-14T03:26:19;98686.75;;;12.81;63.33
49297;BME280;35163;48.878;18.040;2023-05-14T03:28:49;98686.63;;;12.84;62.64
49297;BME280;35163;48.878;18.040;2023-05-14T03:31:16;98696.16;;;12.83;62.51
49297;BME280;35163;48.878;18.040;2023-05-14T03:33:43;98694.56;;;12.79;62.43
49297;BME280;35163;48.878;18.040;2023-05-14T03:36:09;98702.47;;;12.76;62.94
49297;BME280;35163;48.878;18.040;2023-05-14T03:38:36;98694.56;;;12.79;62.85
49297;BME280;35163;48.878;18.040;2023-05-14T03:41:03;98699.06;;;12.75;63.01
49297;BME280;35163;48.878;18.040;2023-05-14T03:43:30;98701.59;;;12.77;63.40
49297;BME280;35163;48.878;18.040;2023-05-14T03:45:57;98694.56;;;12.79;63.45
49297;BME280;35163;48.878;18.040;2023-05-14T03:48:23;98701.47;;;12.80;63.32
49297;BME280;35163;48.878;18.040;2023-05-14T03:50:50;98692.88;;;12.78;63.07
49297;BME280;35163;48.878;18.040;2023-05-14T03:53:19;98692.88;;;12.78;63.29
49297;BME280;35163;48.878;18.040;2023-05-14T03:55:46;98694.56;;;12.79;62.84
49297;BME280;35163;48.878;18.040;2023-05-14T03:58:13;98694.56;;;12.79;62.73
49297;BME280;35163;48.878;18.040;2023-05-14T04:00:40;98689.28;;;12.82;62.46
49297;BME280;35163;48.878;18.040;2023-05-14T04:03:07;98695.25;;;12.84;62.08
49297;BME280;35163;48.878;18.040;2023-05-14T04:05:34;98697.75;;;12.87;61.83
49297;BME280;35163;48.878;18.040;2023-05-14T04:08:01;98691.59;;;12.90;61.32
49297;BME280;35163;48.878;18.040;2023-05-14T04:10:28;98696.72;;;12.92;61.07
49297;BME280;35163;48.878;18.040;2023-05-14T04:12:55;98700.91;;;12.96;61.46
49297;BME280;35163;48.878;18.040;2023-05-14T04:15:21;98700.97;;;12.94;61.43
49297;BME280;35163;48.878;18.040;2023-05-14T04:17:48;98696.53;;;12.98;62.01
49297;BME280;35163;48.878;18.040;2023-05-14T04:20:18;98706.94;;;12.96;62.34
49297;BME280;35163;48.878;18.040;2023-05-14T04:22:44;98694.81;;;12.97;62.52
49297;BME280;35163;48.878;18.040;2023-05-14T04:25:11;98700.00;;;12.97;62.27
49297;BME280;35163;48.878;18.040;2023-05-14T04:27:38;98694.88;;;12.95;62.64
49297;BME280;35163;48.878;18.040;2023-05-14T04:30:07;98703.34;;;13.00;62.32
49297;BME280;35163;48.878;18.040;2023-05-14T04:32:34;98692.22;;;12.97;61.88
49297;BME280;35163;48.878;18.040;2023-05-14T04:35:01;98690.66;;;12.93;61.86
49297;BME280;35163;48.878;18.040;2023-05-14T04:37:28;98688.00;;;12.94;61.49
49297;BME280;35163;48.878;18.040;2023-05-14T04:39:54;98692.22;;;12.97;61.48
49297;BME280;35163;48.878;18.040;2023-05-14T04:42:21;98686.16;;;12.96;61.34
49297;BME280;35163;48.878;18.040;2023-05-14T04:44:48;98681.78;;;12.98;61.20
49297;BME280;35163;48.878;18.040;2023-05-14T04:47:14;98678.34;;;12.98;61.02
49297;BME280;35163;48.878;18.040;2023-05-14T04:49:41;98675.56;;;13.03;60.96
49297;BME280;35163;48.878;18.040;2023-05-14T04:52:08;98671.31;;;13.00;60.94
49297;BME280;35163;48.878;18.040;2023-05-14T04:54:35;98670.31;;;13.04;61.10
49297;BME280;35163;48.878;18.040;2023-05-14T04:57:02;98667.72;;;13.04;61.18
49297;BME280;35163;48.878;18.040;2023-05-14T04:59:29;98665.06;;;13.06;60.75
49297;BME280;35163;48.878;18.040;2023-05-14T05:01:56;98659.56;;;13.13;60.84
49297;BME280;35163;48.878;18.040;2023-05-14T05:04:24;98674.25;;;13.15;60.74
49297;BME280;35163;48.878;18.040;2023-05-14T05:06:51;98667.16;;;13.20;60.62
49297;BME280;35163;48.878;18.040;2023-05-14T05:09:21;98662.63;;;13.25;60.38
49297;BME280;35163;48.878;18.040;2023-05-14T05:11:48;98660.81;;;13.27;60.32
49297;BME280;35163;48.878;18.040;2023-05-14T05:14:15;98667.81;;;13.25;60.35
49297;BME280;35163;48.878;18.040;2023-05-14T05:16:44;98667.56;;;13.31;60.31
49297;BME280;35163;48.878;18.040;2023-05-14T05:19:11;98658.88;;;13.32;60.33
49297;BME280;35163;48.878;18.040;2023-05-14T05:21:41;98667.38;;;13.36;60.19
49297;BME280;35163;48.878;18.040;2023-05-14T05:24:07;98659.59;;;13.36;60.18
49297;BME280;35163;48.878;18.040;2023-05-14T05:26:34;98657.84;;;13.36;60.06
49297;BME280;35163;48.878;18.040;2023-05-14T05:29:04;98668.13;;;13.40;60.38
49297;BME280;35163;48.878;18.040;2023-05-14T05:31:31;98668.13;;;13.40;59.85
49297;BME280;35163;48.878;18.040;2023-05-14T05:33:58;98661.97;;;13.42;59.70
49297;BME280;35163;48.878;18.040;2023-05-14T05:36:25;98662.03;;;13.41;59.64
49297;BME280;35163;48.878;18.040;2023-05-14T05:38:52;98667.09;;;13.44;59.84
49297;BME280;35163;48.878;18.040;2023-05-14T05:41:19;98675.69;;;13.46;60.00
49297;BME280;35163;48.878;18.040;2023-05-14T05:43:45;98673.84;;;13.48;59.68
49297;BME280;35163;48.878;18.040;2023-05-14T05:46:12;98679.84;;;13.50;59.73
49297;BME280;35163;48.878;18.040;2023-05-14T05:48:40;98678.09;;;13.51;59.83
49297;BME280;35163;48.878;18.040;2023-05-14T05:51:07;98688.25;;;13.57;60.60
49297;BME280;35163;48.878;18.040;2023-05-14T05:53:33;98687.25;;;13.61;61.83
49297;BME280;35163;48.878;18.040;2023-05-14T05:56:00;98695.03;;;13.61;62.99
49297;BME280;35163;48.878;18.040;2023-05-14T05:58:27;98695.91;;;13.62;63.03
49297;BME280;35163;48.878;18.040;2023-05-14T06:00:53;98690.78;;;13.58;63.66
49297;BME280;35163;48.878;18.040;2023-05-14T06:03:22;98687.97;;;13.65;63.36
49297;BME280;35163;48.878;18.040;2023-05-14T06:05:49;98686.50;;;13.57;63.24
49297;BME280;35163;48.878;18.040;2023-05-14T06:08:18;98689.78;;;13.63;63.21
49297;BME280;35163;48.878;18.040;2023-05-14T06:10:44;98684.31;;;13.69;63.06
49297;BME280;35163;48.878;18.040;2023-05-14T06:13:13;98684.31;;;13.69;62.72
49297;BME280;35163;48.878;18.040;2023-05-14T06:15:39;98683.38;;;13.71;63.06
49297;BME280;35163;48.878;18.040;2023-05-14T06:18:06;98679.72;;;13.76;62.38
49297;BME280;35163;48.878;18.040;2023-05-14T06:20:34;98680.44;;;13.79;62.33
49297;BME280;35163;48.878;18.040;2023-05-14T06:23:01;98675.19;;;13.81;62.13
49297;BME280;35163;48.878;18.040;2023-05-14T06:25:28;98676.91;;;13.82;62.29
49297;BME280;35163;48.878;18.040;2023-05-14T06:27:54;98675.13;;;13.82;61.52
49297;BME280;35163;48.878;18.040;2023-05-14T06:30:21;98680.44;;;13.79;62.01
49297;BME280;35163;48.878;18.040;2023-05-14T06:32:48;98679.38;;;13.85;61.58
49297;BME280;35163;48.878;18.040;2023-05-14T06:35:17;98680.91;;;13.89;62.47
49297;BME280;35163;48.878;18.040;2023-05-14T06:37:44;98674.81;;;13.90;61.48
49297;BME280;35163;48.878;18.040;2023-05-14T06:40:11;98673.09;;;13.91;60.88
49297;BME280;35163;48.878;18.040;2023-05-14T06:42:41;98667.81;;;13.92;61.29
49297;BME280;35163;48.878;18.040;2023-05-14T06:45:08;98665.28;;;13.91;60.66
49297;BME280;35163;48.878;18.040;2023-05-14T06:47:34;98668.63;;;13.93;61.13
49297;BME280;35163;48.878;18.040;2023-05-14T06:50:01;98652.28;;;13.91;60.60
49297;BME280;35163;48.878;18.040;2023-05-14T06:52:28;98655.66;;;13.93;60.26
49297;BME280;35163;48.878;18.040;2023-05-14T06:54:55;98645.00;;;13.99;60.27
49297;BME280;35163;48.878;18.040;2023-05-14T06:57:21;98646.69;;;14.00;59.20
49297;BME280;35163;48.878;18.040;2023-05-14T06:59:48;98646.63;;;14.02;59.22
49297;BME280;35163;48.878;18.040;2023-05-14T07:02:15;98643.13;;;14.03;59.15
49297;BME280;35163;48.878;18.040;2023-05-14T07:04:41;98638.69;;;14.05;60.06
49297;BME280;35163;48.878;18.040;2023-05-14T07:07:08;98635.25;;;14.04;60.19
49297;BME280;35163;48.878;18.040;2023-05-14T07:09:38;98629.13;;;14.05;61.47
49297;BME280;35163;48.878;18.040;2023-05-14T07:12:05;98621.00;;;14.13;61.90
49297;BME280;35163;48.878;18.040;2023-05-14T07:14:32;98616.66;;;14.14;61.72
49297;BME280;35163;48.878;18.040;2023-05-14T07:16:59;98610.66;;;14.12;60.90
49297;BME280;35163;48.878;18.040;2023-05-14T07:19:28;98614.84;;;14.16;60.96
49297;BME280;35163;48.878;18.040;2023-05-14T07:21:56;98608.66;;;14.18;60.54
49297;BME280;35163;48.878;18.040;2023-05-14T07:24:23;98609.34;;;14.22;60.52
49297;BME280;35163;48.878;18.040;2023-05-14T07:26:49;98614.56;;;14.22;60.64
49297;BME280;35163;48.878;18.040;2023-05-14T07:29:16;98619.63;;;14.25;60.93
49297;BME280;35163;48.878;18.040;2023-05-14T07:31:45;98612.88;;;14.21;60.56
49297;BME280;35163;48.878;18.040;2023-05-14T07:34:14;98618.94;;;14.21;60.88
49297;BME280;35163;48.878;18.040;2023-05-14T07:36:40;98619.63;;;14.25;61.49
49297;BME280;35163;48.878;18.040;2023-05-14T07:39:07;98618.81;;;14.25;62.70
49297;BME280;35163;48.878;18.040;2023-05-14T07:41:34;98613.47;;;14.28;63.31
49297;BME280;35163;48.878;18.040;2023-05-14T07:44:01;98616.28;;;14.23;63.62
49297;BME280;35163;48.878;18.040;2023-05-14T07:46:27;98613.75;;;14.21;64.45
49297;BME280;35163;48.878;18.040;2023-05-14T07:48:54;98613.78;;;14.20;64.82
49297;BME280;35163;48.878;18.040;2023-05-14T07:51:21;98611.13;;;14.21;65.36
49297;BME280;35163;48.878;18.040;2023-05-14T07:53:48;98610.94;;;14.26;63.24
49297;BME280;35163;48.878;18.040;2023-05-14T07:56:15;98607.22;;;14.32;62.18
49297;BME280;35163;48.878;18.040;2023-05-14T07:58:41;98607.97;;;14.34;61.81
49297;BME280;35163;48.878;18.040;2023-05-14T08:01:10;98612.22;;;14.37;61.67
49297;BME280;35163;48.878;18.040;2023-05-14T08:03:38;98613.31;;;14.31;62.42
49297;BME280;35163;48.878;18.040;2023-05-14T08:06:05;98610.50;;;14.36;62.63
49297;BME280;35163;48.878;18.040;2023-05-14T08:08:32;98608.13;;;14.31;63.81
49297;BME280;35163;48.878;18.040;2023-05-14T08:10:58;98618.38;;;14.34;64.43
49297;BME280;35163;48.878;18.040;2023-05-14T08:13:25;98622.47;;;14.40;64.17
49297;BME280;35163;48.878;18.040;2023-05-14T08:15:51;98622.69;;;14.35;64.80
49297;BME280;35163;48.878;18.040;2023-05-14T08:18:18;98617.66;;;14.30;65.41
49297;BME280;35163;48.878;18.040;2023-05-14T08:20:45;98614.41;;;14.25;66.13
49297;BME280;35163;48.878;18.040;2023-05-14T08:23:12;98619.75;;;14.22;65.93
49297;BME280;35163;48.878;18.040;2023-05-14T08:25:38;98613.84;;;14.18;66.40
49297;BME280;35163;48.878;18.040;2023-05-14T08:28:06;98627.63;;;14.20;66.50
49297;BME280;35163;48.878;18.040;2023-05-14T08:30:33;98616.34;;;14.21;67.05
49297;BME280;35163;48.878;18.040;2023-05-14T08:32:59;98617.38;;;14.17;67.12
49297;BME280;35163;48.878;18.040;2023-05-14T08:35:29;98618.09;;;14.21;67.63
49297;BME280;35163;48.878;18.040;2023-05-14T08:37:55;98613.66;;;14.23;67.00
49297;BME280;35163;48.878;18.040;2023-05-14T08:40:22;98612.75;;;14.24;66.88
49297;BME280;35163;48.878;18.040;2023-05-14T08:42:50;98608.25;;;14.28;66.44
49297;BME280;35163;48.878;18.040;2023-05-14T08:45:19;98612.47;;;14.30;65.85
49297;BME280;35163;48.878;18.040;2023-05-14T08:47:49;98610.66;;;14.32;65.62
49297;BME280;35163;48.878;18.040;2023-05-14T08:50:17;98610.50;;;14.36;65.73
49297;BME280;35163;48.878;18.040;2023-05-14T08:52:48;98606.16;;;14.36;65.59
49297;BME280;35163;48.878;18.040;2023-05-14T08:55:15;98599.28;;;14.35;65.44
49297;BME280;35163;48.878;18.040;2023-05-14T08:57:41;98598.16;;;14.41;66.01
49297;BME280;35163;48.878;18.040;2023-05-14T09:00:08;98597.19;;;14.43;66.84
49297;BME280;35163;48.878;18.040;2023-05-14T09:02:39;98595.38;;;14.45;67.45
49297;BME280;35163;48.878;18.040;2023-05-14T09:05:07;98586.56;;;14.48;66.39
49297;BME280;35163;48.878;18.040;2023-05-14T09:07:34;98577.81;;;14.49;66.35
49297;BME280;35163;48.878;18.040;2023-05-14T09:10:01;98577.72;;;14.52;66.53
49297;BME280;35163;48.878;18.040;2023-05-14T09:12:29;98579.31;;;14.55;67.45
49297;BME280;35163;48.878;18.040;2023-05-14T09:14:56;98574.91;;;14.57;67.99
49297;BME280;35163;48.878;18.040;2023-05-14T09:17:25;98570.47;;;14.59;68.40
49297;BME280;35163;48.878;18.040;2023-05-14T09:19:52;98577.91;;;14.67;68.97
49297;BME280;35163;48.878;18.040;2023-05-14T09:22:21;98582.84;;;14.73;69.12
49297;BME280;35163;48.878;18.040;2023-05-14T09:25:04;98585.47;;;14.73;69.67
49297;BME280;35163;48.878;18.040;2023-05-14T09:27:32;98581.16;;;14.72;70.38
49297;BME280;35163;48.878;18.040;2023-05-14T09:30:10;98579.47;;;14.71;68.53
49297;BME280;35163;48.878;18.040;2023-05-14T09:32:39;98578.47;;;14.74;68.41
49297;BME280;35163;48.878;18.040;2023-05-14T09:37:45;98567.84;;;14.78;68.61
49297;BME280;35163;48.878;18.040;2023-05-14T09:40:12;98572.03;;;14.82;68.36
49297;BME280;35163;48.878;18.040;2023-05-14T09:42:39;98556.13;;;14.89;68.40
49297;BME280;35163;48.878;18.040;2023-05-14T09:45:07;98548.03;;;14.95;68.02
49297;BME280;35163;48.878;18.040;2023-05-14T09:47:35;98554.69;;;15.01;68.62
49297;BME280;35163;48.878;18.040;2023-05-14T09:50:03;98551.81;;;15.07;69.05
49297;BME280;35163;48.878;18.040;2023-05-14T09:52:30;98543.69;;;15.13;68.33
49297;BME280;35163;48.878;18.040;2023-05-14T09:54:57;98548.59;;;15.19;68.42
49297;BME280;35163;48.878;18.040;2023-05-14T09:57:23;98550.16;;;15.24;68.22
49297;BME280;35163;48.878;18.040;2023-05-14T09:59:50;98554.91;;;15.33;68.67
49297;BME280;35163;48.878;18.040;2023-05-14T10:02:29;98552.09;;;15.38;68.56
49297;BME280;35163;48.878;18.040;2023-05-14T10:05:03;98543.19;;;15.42;69.32
49297;BME280;35163;48.878;18.040;2023-05-14T10:07:36;98543.06;;;15.45;69.49
49297;BME280;35163;48.878;18.040;2023-05-14T10:10:06;98535.84;;;15.50;70.06
49297;BME280;35163;48.878;18.040;2023-05-14T10:12:38;98538.22;;;15.55;69.03
49297;BME280;35163;48.878;18.040;2023-05-14T10:15:17;98535.38;;;15.60;68.70
49297;BME280;35163;48.878;18.040;2023-05-14T10:17:48;98530.59;;;15.68;68.72
49297;BME280;35163;48.878;18.040;2023-05-14T10:20:21;98526.94;;;15.72;68.73
49297;BME280;35163;48.878;18.040;2023-05-14T10:22:49;98525.84;;;15.76;67.90
49297;BME280;35163;48.878;18.040;2023-05-14T10:25:16;98522.34;;;15.77;65.96
49297;BME280;35163;48.878;18.040;2023-05-14T10:27:44;98519.66;;;15.79;66.14
49297;BME280;35163;48.878;18.040;2023-05-14T10:30:11;98523.84;;;15.82;66.25
49297;BME280;35163;48.878;18.040;2023-05-14T10:32:38;98519.06;;;15.90;67.00
49297;BME280;35163;48.878;18.040;2023-05-14T10:35:20;98518.00;;;15.94;66.70
49297;BME280;35163;48.878;18.040;2023-05-14T10:37:50;98522.22;;;15.97;66.91
49297;BME280;35163;48.878;18.040;2023-05-14T10:40:17;98523.75;;;16.01;66.20
49297;BME280;35163;48.878;18.040;2023-05-14T10:42:45;98521.94;;;16.03;67.16
49297;BME280;35163;48.878;18.040;2023-05-14T10:45:13;98517.41;;;16.07;68.21
49297;BME280;35163;48.878;18.040;2023-05-14T10:47:42;98511.06;;;16.11;67.93
49297;BME280;35163;48.878;18.040;2023-05-14T10:50:11;98505.78;;;16.12;65.71
49297;BME280;35163;48.878;18.040;2023-05-14T10:52:40;98498.56;;;16.18;65.53
49297;BME280;35163;48.878;18.040;2023-05-14T10:55:08;98492.34;;;16.20;65.14
49297;BME280;35163;48.878;18.040;2023-05-14T10:57:38;98495.72;;;16.22;66.22
49297;BME280;35163;48.878;18.040;2023-05-14T11:00:06;98489.38;;;16.26;65.49
49297;BME280;35163;48.878;18.040;2023-05-14T11:02:36;98488.31;;;16.31;65.69
49297;BME280;35163;48.878;18.040;2023-05-14T11:05:14;98484.50;;;16.36;66.45
49297;BME280;35163;48.878;18.040;2023-05-14T11:07:44;98483.69;;;16.36;66.05
49297;BME280;35163;48.878;18.040;2023-05-14T11:10:16;98483.59;;;16.37;65.45
49297;BME280;35163;48.878;18.040;2023-05-14T11:12:45;98478.13;;;16.42;65.63
49297;BME280;35163;48.878;18.040;2023-05-14T11:15:14;98486.88;;;16.41;65.44
49297;BME280;35163;48.878;18.040;2023-05-14T11:17:42;98470.13;;;16.45;65.28
49297;BME280;35163;48.878;18.040;2023-05-14T11:20:12;98470.97;;;16.46;66.06
49297;BME280;35163;48.878;18.040;2023-05-14T11:22:41;98464.16;;;16.43;65.04
49297;BME280;35163;48.878;18.040;2023-05-14T11:25:12;98465.84;;;16.44;65.35
49297;BME280;35163;48.878;18.040;2023-05-14T11:27:42;98464.16;;;16.43;65.25
49297;BME280;35163;48.878;18.040;2023-05-14T11:30:16;98468.63;;;16.41;66.10
49297;BME280;35163;48.878;18.040;2023-05-14T11:32:47;98459.19;;;16.38;65.77
49297;BME280;35163;48.878;18.040;2023-05-14T11:35:15;98460.13;;;16.37;65.81
49297;BME280;35163;48.878;18.040;2023-05-14T11:37:42;98460.03;;;16.39;65.97
49297;BME280;35163;48.878;18.040;2023-05-14T11:40:15;98458.19;;;16.41;66.66
49297;BME280;35163;48.878;18.040;2023-05-14T11:42:42;98453.97;;;16.38;65.95
49297;BME280;35163;48.878;18.040;2023-05-14T11:45:10;98455.06;;;16.34;66.21
49297;BME280;35163;48.878;18.040;2023-05-14T11:47:40;98461.38;;;16.30;65.81
49297;BME280;35163;48.878;18.040;2023-05-14T11:50:07;98460.69;;;16.26;65.66
49297;BME280;35163;48.878;18.040;2023-05-14T11:52:39;98465.91;;;16.26;64.44
49297;BME280;35163;48.878;18.040;2023-05-14T11:55:11;98455.81;;;16.20;65.42
49297;BME280;35163;48.878;18.040;2023-05-14T11:57:38;98442.88;;;16.19;67.26
49297;BME280;35163;48.878;18.040;2023-05-14T12:00:10;98444.72;;;16.17;67.95
49297;BME280;35163;48.878;18.040;2023-05-14T12:02:42;98449.00;;;16.18;67.96
49297;BME280;35163;48.878;18.040;2023-05-14T12:05:11;98449.41;;;16.10;68.47
49297;BME280;35163;48.878;18.040;2023-05-14T12:07:38;98436.47;;;16.08;68.76
49297;BME280;35163;48.878;18.040;2023-05-14T12:10:06;98425.34;;;16.05;70.66
49297;BME280;35163;48.878;18.040;2023-05-14T12:12:34;98413.34;;;16.02;70.75
49297;BME280;35163;48.878;18.040;2023-05-14T12:15:10;98410.16;;;15.95;70.67
49297;BME280;35163;48.878;18.040;2023-05-14T12:17:38;98404.88;;;15.97;70.43
49297;BME280;35163;48.878;18.040;2023-05-14T12:20:10;98407.72;;;15.92;69.88
49297;BME280;35163;48.878;18.040;2023-05-14T12:22:39;98401.91;;;15.87;70.31
49297;BME280;35163;48.878;18.040;2023-05-14T12:25:12;98402.34;;;15.79;69.92
49297;BME280;35163;48.878;18.040;2023-05-14T12:27:43;98401.31;;;15.82;70.67
49297;BME280;35163;48.878;18.040;2023-05-14T12:30:11;98395.19;;;15.83;70.81
49297;BME280;35163;48.878;18.040;2023-05-14T12:32:46;98400.41;;;15.83;70.76
49297;BME280;35163;48.878;18.040;2023-05-14T12:35:20;98390.97;;;15.80;70.20
49297;BME280;35163;48.878;18.040;2023-05-14T12:37:50;98384.94;;;15.79;71.18
49297;BME280;35163;48.878;18.040;2023-05-14T12:40:17;98383.25;;;15.78;71.78
49297;BME280;35163;48.878;18.040;2023-05-14T12:42:44;98385.09;;;15.76;73.37
49297;BME280;35163;48.878;18.040;2023-05-14T12:45:11;98381.56;;;15.77;72.38
49297;BME280;35163;48.878;18.040;2023-05-14T12:47:37;98379.13;;;15.74;71.76
49297;BME280;35163;48.878;18.040;2023-05-14T12:50:04;98375.00;;;15.70;72.87
49297;BME280;35163;48.878;18.040;2023-05-14T12:52:32;98369.78;;;15.70;71.95
49297;BME280;35163;48.878;18.040;2023-05-14T12:55:08;98360.22;;;15.71;72.87
49297;BME280;35163;48.878;18.040;2023-05-14T12:57:36;98354.91;;;15.72;72.62